BAW213 EGKK-ESSA
Flight info
| Callsign | BAW213 |
|---|---|
| Flight time | 1h 56m |
| Altitude | 35000 |
| Route | FRANE M604 GIVPO DCT LARGA DCT SOPTO DCT LINVI DCT BINRO DCT GURLI DCT XENTA DCT KORET DCT ELTOK |
| Aircraft | B77W/H-SDE1E2E3FGHIJ2J3J4J5M1RWXY/LB1D1 |
Departure
| Time | 2026-05-07 09:58 |
|---|---|
| Airport | London Gatwick Airport (EGKK) |
Arrival
| Time | 2026-05-07 11:54 |
|---|---|
| Airport | Stockholm-Arlanda Airport (ESSA) |
| Time | Latitude | Longitude | Altitude | Speed | Heading |
|---|---|---|---|---|---|
| 2026-05-07 09:28 | 51.15856 | -0.17415 | 210 ft | 0 kts | 348° |
| 2026-05-07 09:44 | 51.15851 | -0.17413 | 209 ft | 3 kts | 347° |
| 2026-05-07 09:44 | 51.15831 | -0.17406 | 214 ft | 3 kts | 347° |
| 2026-05-07 09:44 | 51.15811 | -0.17398 | 219 ft | 3 kts | 343° |
| 2026-05-07 09:44 | 51.15793 | -0.17388 | 216 ft | 2 kts | 325° |
| 2026-05-07 09:45 | 51.15784 | -0.17373 | 224 ft | 2 kts | 281° |
| 2026-05-07 09:45 | 51.15784 | -0.17354 | 222 ft | 1 kts | 261° |
| 2026-05-07 09:45 | 51.15785 | -0.17340 | 219 ft | 1 kts | 258° |
| 2026-05-07 09:45 | 51.15787 | -0.17327 | 216 ft | 1 kts | 257° |
| 2026-05-07 09:48 | 51.15786 | -0.17333 | 218 ft | 1 kts | 257° |
| 2026-05-07 09:49 | 51.15780 | -0.17376 | 224 ft | 8 kts | 257° |
| 2026-05-07 09:49 | 51.15757 | -0.17480 | 221 ft | 9 kts | 227° |
| 2026-05-07 09:49 | 51.15695 | -0.17494 | 217 ft | 10 kts | 169° |
| 2026-05-07 09:49 | 51.15628 | -0.17471 | 219 ft | 10 kts | 167° |
| 2026-05-07 09:50 | 51.15548 | -0.17442 | 217 ft | 13 kts | 167° |
| 2026-05-07 09:50 | 51.15457 | -0.17410 | 212 ft | 13 kts | 168° |
| 2026-05-07 09:50 | 51.15370 | -0.17381 | 218 ft | 9 kts | 168° |
| 2026-05-07 09:50 | 51.15315 | -0.17405 | 219 ft | 9 kts | 233° |
| 2026-05-07 09:51 | 51.15295 | -0.17500 | 215 ft | 9 kts | 258° |
| 2026-05-07 09:51 | 51.15279 | -0.17613 | 212 ft | 13 kts | 258° |
| 2026-05-07 09:51 | 51.15254 | -0.17800 | 214 ft | 20 kts | 258° |
| 2026-05-07 09:51 | 51.15223 | -0.18021 | 215 ft | 20 kts | 257° |
| 2026-05-07 09:52 | 51.15193 | -0.18242 | 213 ft | 20 kts | 261° |
| 2026-05-07 09:52 | 51.15170 | -0.18466 | 218 ft | 20 kts | 256° |
| 2026-05-07 09:52 | 51.15137 | -0.18687 | 214 ft | 20 kts | 257° |
| 2026-05-07 09:52 | 51.15107 | -0.18909 | 212 ft | 20 kts | 258° |
| 2026-05-07 09:53 | 51.15077 | -0.19131 | 215 ft | 20 kts | 258° |
| 2026-05-07 09:53 | 51.15047 | -0.19353 | 215 ft | 20 kts | 258° |
| 2026-05-07 09:53 | 51.15016 | -0.19575 | 218 ft | 20 kts | 257° |
| 2026-05-07 09:53 | 51.14985 | -0.19796 | 221 ft | 20 kts | 257° |
| 2026-05-07 09:54 | 51.14955 | -0.20017 | 220 ft | 20 kts | 257° |
| 2026-05-07 09:54 | 51.14923 | -0.20249 | 214 ft | 23 kts | 258° |
| 2026-05-07 09:54 | 51.14887 | -0.20500 | 219 ft | 23 kts | 256° |
| 2026-05-07 09:54 | 51.14854 | -0.20744 | 217 ft | 22 kts | 257° |
| 2026-05-07 09:55 | 51.14821 | -0.20984 | 216 ft | 22 kts | 257° |
| 2026-05-07 09:55 | 51.14784 | -0.21207 | 218 ft | 20 kts | 251° |
| 2026-05-07 09:55 | 51.14755 | -0.21367 | 218 ft | 10 kts | 243° |
| 2026-05-07 09:55 | 51.14691 | -0.21389 | 215 ft | 10 kts | 152° |
| 2026-05-07 09:56 | 51.14645 | -0.21343 | 219 ft | 7 kts | 156° |
| 2026-05-07 09:56 | 51.14600 | -0.21322 | 218 ft | 7 kts | 167° |
| 2026-05-07 09:56 | 51.14557 | -0.21292 | 222 ft | 7 kts | 143° |
| 2026-05-07 09:56 | 51.14526 | -0.21235 | 221 ft | 7 kts | 122° |
| 2026-05-07 09:57 | 51.14525 | -0.21142 | 217 ft | 11 kts | 81° |
| 2026-05-07 09:57 | 51.14548 | -0.20964 | 218 ft | 27 kts | 78° |
| 2026-05-07 09:57 | 51.14637 | -0.20321 | 218 ft | 96 kts | 78° |
| 2026-05-07 09:57 | 51.14827 | -0.18933 | 220 ft | 159 kts | 78° |
| 2026-05-07 09:58 | 51.15082 | -0.17026 | 504 ft | 181 kts | 78° |
| 2026-05-07 09:58 | 51.15359 | -0.15037 | 1146 ft | 187 kts | 78° |
| 2026-05-07 09:58 | 51.15651 | -0.12955 | 1653 ft | 201 kts | 78° |
| 2026-05-07 09:58 | 51.15966 | -0.10656 | 1898 ft | 224 kts | 79° |
| 2026-05-07 09:59 | 51.16318 | -0.08095 | 2215 ft | 246 kts | 78° |
| 2026-05-07 09:59 | 51.16685 | -0.05393 | 2936 ft | 253 kts | 78° |
| 2026-05-07 09:59 | 51.16967 | -0.02595 | 3587 ft | 260 kts | 89° |
| 2026-05-07 09:59 | 51.16932 | 0.00290 | 4372 ft | 260 kts | 94° |
| 2026-05-07 10:00 | 51.16832 | 0.03193 | 4951 ft | 264 kts | 94° |
| 2026-05-07 10:00 | 51.16747 | 0.06139 | 5002 ft | 270 kts | 93° |
| 2026-05-07 10:00 | 51.16678 | 0.09123 | 5027 ft | 270 kts | 93° |
| 2026-05-07 10:00 | 51.16618 | 0.12063 | 5015 ft | 267 kts | 93° |
| 2026-05-07 10:01 | 51.16560 | 0.15049 | 4873 ft | 265 kts | 92° |
| 2026-05-07 10:01 | 51.16546 | 0.17914 | 5118 ft | 259 kts | 91° |
| 2026-05-07 10:01 | 51.16557 | 0.20823 | 5671 ft | 267 kts | 90° |
| 2026-05-07 10:01 | 51.16568 | 0.23821 | 6209 ft | 274 kts | 91° |
| 2026-05-07 10:02 | 51.16576 | 0.26866 | 6688 ft | 275 kts | 91° |
| 2026-05-07 10:02 | 51.16582 | 0.29912 | 7167 ft | 276 kts | 91° |
| 2026-05-07 10:02 | 51.16588 | 0.32979 | 7675 ft | 277 kts | 91° |
| 2026-05-07 10:02 | 51.16598 | 0.36049 | 8183 ft | 276 kts | 87° |
| 2026-05-07 10:03 | 51.17087 | 0.39000 | 8665 ft | 280 kts | 60° |
| 2026-05-07 10:03 | 51.18382 | 0.41313 | 9225 ft | 285 kts | 33° |
| 2026-05-07 10:03 | 51.20142 | 0.42803 | 9807 ft | 289 kts | 23° |
| 2026-05-07 10:03 | 51.22000 | 0.44045 | 10298 ft | 291 kts | 21° |
| 2026-05-07 10:04 | 51.23881 | 0.45248 | 10785 ft | 293 kts | 21° |
| 2026-05-07 10:04 | 51.25781 | 0.46456 | 11299 ft | 294 kts | 21° |
| 2026-05-07 10:04 | 51.27046 | 0.47258 | 11644 ft | 296 kts | 21° |
| 2026-05-07 10:04 | 51.29612 | 0.48886 | 12360 ft | 298 kts | 21° |
| 2026-05-07 10:05 | 51.30891 | 0.49697 | 12710 ft | 299 kts | 21° |
| 2026-05-07 10:05 | 51.32827 | 0.50927 | 13322 ft | 299 kts | 21° |
| 2026-05-07 10:05 | 51.34770 | 0.52165 | 13983 ft | 302 kts | 21° |
| 2026-05-07 10:05 | 51.36736 | 0.53421 | 14623 ft | 306 kts | 21° |
| 2026-05-07 10:06 | 51.38740 | 0.54702 | 15380 ft | 314 kts | 21° |
| 2026-05-07 10:06 | 51.40796 | 0.56017 | 16045 ft | 322 kts | 21° |
| 2026-05-07 10:06 | 51.42902 | 0.57364 | 16697 ft | 330 kts | 21° |
| 2026-05-07 10:06 | 51.45041 | 0.58789 | 17284 ft | 339 kts | 26° |
| 2026-05-07 10:07 | 51.47118 | 0.60825 | 17476 ft | 362 kts | 35° |
| 2026-05-07 10:07 | 51.49204 | 0.63318 | 17671 ft | 385 kts | 37° |
| 2026-05-07 10:07 | 51.51371 | 0.66015 | 17940 ft | 404 kts | 37° |
| 2026-05-07 10:07 | 51.53608 | 0.68770 | 18499 ft | 414 kts | 37° |
| 2026-05-07 10:08 | 51.55924 | 0.71560 | 19163 ft | 419 kts | 36° |
| 2026-05-07 10:08 | 51.58291 | 0.74355 | 19772 ft | 426 kts | 36° |
| 2026-05-07 10:08 | 51.60713 | 0.77170 | 20399 ft | 431 kts | 35° |
| 2026-05-07 10:08 | 51.63157 | 0.79984 | 21171 ft | 433 kts | 35° |
| 2026-05-07 10:09 | 51.65626 | 0.82812 | 21796 ft | 439 kts | 35° |
| 2026-05-07 10:09 | 51.68129 | 0.85676 | 22432 ft | 443 kts | 35° |
| 2026-05-07 10:09 | 51.70659 | 0.88571 | 23125 ft | 447 kts | 35° |
| 2026-05-07 10:09 | 51.73203 | 0.91488 | 23755 ft | 451 kts | 35° |
| 2026-05-07 10:10 | 51.75768 | 0.94434 | 24294 ft | 454 kts | 35° |
| 2026-05-07 10:10 | 51.78345 | 0.97398 | 24921 ft | 455 kts | 36° |
| 2026-05-07 10:10 | 51.80927 | 1.00374 | 25479 ft | 458 kts | 36° |
| 2026-05-07 10:10 | 51.83529 | 1.03377 | 26003 ft | 461 kts | 36° |
| 2026-05-07 10:11 | 51.86143 | 1.06399 | 26535 ft | 463 kts | 36° |
| 2026-05-07 10:11 | 51.88769 | 1.09439 | 27055 ft | 465 kts | 36° |
| 2026-05-07 10:11 | 51.91406 | 1.12496 | 27567 ft | 468 kts | 36° |
| 2026-05-07 10:11 | 51.94052 | 1.15569 | 28066 ft | 470 kts | 36° |
| 2026-05-07 10:12 | 51.96715 | 1.18666 | 28536 ft | 472 kts | 36° |
| 2026-05-07 10:12 | 51.99385 | 1.21777 | 28975 ft | 474 kts | 36° |
| 2026-05-07 10:12 | 52.02069 | 1.24906 | 29396 ft | 476 kts | 36° |
| 2026-05-07 10:12 | 52.04768 | 1.28059 | 29796 ft | 478 kts | 36° |
| 2026-05-07 10:13 | 52.07456 | 1.31204 | 30236 ft | 479 kts | 36° |
| 2026-05-07 10:13 | 52.10170 | 1.34383 | 30663 ft | 478 kts | 36° |
| 2026-05-07 10:13 | 52.12857 | 1.37537 | 31097 ft | 477 kts | 36° |
| 2026-05-07 10:13 | 52.15546 | 1.40697 | 31520 ft | 476 kts | 36° |
| 2026-05-07 10:14 | 52.18224 | 1.43850 | 31968 ft | 474 kts | 36° |
| 2026-05-07 10:14 | 52.20891 | 1.46994 | 32399 ft | 473 kts | 36° |
| 2026-05-07 10:14 | 52.23551 | 1.50134 | 32821 ft | 472 kts | 36° |
| 2026-05-07 10:14 | 52.26206 | 1.53273 | 33227 ft | 471 kts | 37° |
| 2026-05-07 10:15 | 52.28819 | 1.56367 | 33589 ft | 470 kts | 37° |
| 2026-05-07 10:15 | 52.31500 | 1.59547 | 33971 ft | 469 kts | 37° |
| 2026-05-07 10:15 | 52.34138 | 1.62681 | 34303 ft | 469 kts | 37° |
| 2026-05-07 10:15 | 52.36774 | 1.65817 | 34551 ft | 469 kts | 37° |
| 2026-05-07 10:16 | 52.39381 | 1.68923 | 34807 ft | 470 kts | 37° |
| 2026-05-07 10:16 | 52.42023 | 1.72076 | 35023 ft | 471 kts | 37° |
| 2026-05-07 10:16 | 52.44688 | 1.75261 | 35068 ft | 475 kts | 37° |
| 2026-05-07 10:17 | 52.50039 | 1.81670 | 35098 ft | 477 kts | 37° |
| 2026-05-07 10:17 | 52.55391 | 1.88118 | 35098 ft | 476 kts | 38° |
| 2026-05-07 10:18 | 52.60249 | 1.95435 | 35119 ft | 471 kts | 46° |
| 2026-05-07 10:18 | 52.64731 | 2.03217 | 35102 ft | 466 kts | 47° |
| 2026-05-07 10:19 | 52.69178 | 2.10941 | 35102 ft | 462 kts | 46° |
| 2026-05-07 10:19 | 52.73627 | 2.18614 | 35119 ft | 465 kts | 46° |
| 2026-05-07 10:20 | 52.78088 | 2.26303 | 35104 ft | 462 kts | 46° |
| 2026-05-07 10:20 | 52.82552 | 2.34022 | 35106 ft | 466 kts | 46° |
| 2026-05-07 10:21 | 52.87013 | 2.41766 | 35103 ft | 462 kts | 46° |
| 2026-05-07 10:21 | 52.91466 | 2.49521 | 35111 ft | 466 kts | 46° |
| 2026-05-07 10:22 | 52.95920 | 2.57290 | 35109 ft | 466 kts | 45° |
| 2026-05-07 10:22 | 53.00911 | 2.64251 | 35108 ft | 474 kts | 34° |
| 2026-05-07 10:23 | 53.06548 | 2.69870 | 35111 ft | 476 kts | 30° |
| 2026-05-07 10:23 | 53.12317 | 2.75323 | 35106 ft | 477 kts | 30° |
| 2026-05-07 10:24 | 53.18081 | 2.80828 | 35107 ft | 477 kts | 30° |
| 2026-05-07 10:24 | 53.23812 | 2.86379 | 35110 ft | 476 kts | 30° |
| 2026-05-07 10:25 | 53.29529 | 2.91958 | 35107 ft | 476 kts | 30° |
| 2026-05-07 10:25 | 53.35241 | 2.97551 | 35107 ft | 475 kts | 30° |
| 2026-05-07 10:26 | 53.40947 | 3.03154 | 35104 ft | 475 kts | 30° |
| 2026-05-07 10:26 | 53.46646 | 3.08765 | 35103 ft | 475 kts | 30° |
| 2026-05-07 10:27 | 53.52347 | 3.14396 | 35107 ft | 476 kts | 30° |
| 2026-05-07 10:27 | 53.58067 | 3.20062 | 35108 ft | 477 kts | 30° |
| 2026-05-07 10:28 | 53.63787 | 3.25748 | 35111 ft | 478 kts | 30° |
| 2026-05-07 10:28 | 53.69522 | 3.31466 | 35111 ft | 479 kts | 30° |
| 2026-05-07 10:29 | 53.75261 | 3.37207 | 35116 ft | 480 kts | 30° |
| 2026-05-07 10:29 | 53.81015 | 3.42982 | 35113 ft | 482 kts | 31° |
| 2026-05-07 10:30 | 53.89666 | 3.51699 | 35118 ft | 483 kts | 30° |
| 2026-05-07 10:30 | 53.95449 | 3.57549 | 35118 ft | 484 kts | 31° |
| 2026-05-07 10:31 | 54.01229 | 3.63417 | 35115 ft | 485 kts | 30° |
| 2026-05-07 10:31 | 54.07026 | 3.69320 | 35116 ft | 486 kts | 30° |
| 2026-05-07 10:32 | 54.12827 | 3.75247 | 35117 ft | 487 kts | 30° |
| 2026-05-07 10:32 | 54.18600 | 3.81165 | 35120 ft | 488 kts | 30° |
| 2026-05-07 10:33 | 54.24426 | 3.87158 | 35112 ft | 489 kts | 30° |
| 2026-05-07 10:33 | 54.30290 | 3.93209 | 35117 ft | 489 kts | 30° |
| 2026-05-07 10:34 | 54.36075 | 3.99198 | 35115 ft | 489 kts | 30° |
| 2026-05-07 10:34 | 54.41890 | 4.05240 | 35112 ft | 489 kts | 30° |
| 2026-05-07 10:35 | 54.47707 | 4.11303 | 35118 ft | 489 kts | 30° |
| 2026-05-07 10:35 | 54.53522 | 4.17385 | 35108 ft | 489 kts | 30° |
| 2026-05-07 10:36 | 54.59335 | 4.23485 | 35107 ft | 489 kts | 30° |
| 2026-05-07 10:36 | 54.65149 | 4.29608 | 35109 ft | 489 kts | 31° |
| 2026-05-07 10:37 | 54.70955 | 4.35742 | 35108 ft | 489 kts | 31° |
| 2026-05-07 10:37 | 54.76763 | 4.41900 | 35111 ft | 489 kts | 31° |
| 2026-05-07 10:38 | 54.82564 | 4.48071 | 35109 ft | 490 kts | 31° |
| 2026-05-07 10:38 | 54.88373 | 4.54271 | 35106 ft | 490 kts | 31° |
| 2026-05-07 10:39 | 54.94182 | 4.60493 | 35110 ft | 491 kts | 31° |
| 2026-05-07 10:39 | 54.99993 | 4.66738 | 35111 ft | 491 kts | 31° |
| 2026-05-07 10:40 | 55.05813 | 4.73016 | 35109 ft | 492 kts | 31° |
| 2026-05-07 10:40 | 55.11606 | 4.79286 | 35110 ft | 493 kts | 31° |
| 2026-05-07 10:41 | 55.17437 | 4.85618 | 35114 ft | 494 kts | 31° |
| 2026-05-07 10:41 | 55.23277 | 4.91984 | 35117 ft | 495 kts | 31° |
| 2026-05-07 10:42 | 55.28933 | 4.98876 | 35112 ft | 496 kts | 39° |
| 2026-05-07 10:42 | 55.34173 | 5.06795 | 35124 ft | 497 kts | 40° |
| 2026-05-07 10:43 | 55.39377 | 5.14813 | 35118 ft | 498 kts | 40° |
| 2026-05-07 10:43 | 55.44611 | 5.22815 | 35118 ft | 499 kts | 40° |
| 2026-05-07 10:44 | 55.49872 | 5.30818 | 35114 ft | 499 kts | 40° |
| 2026-05-07 10:44 | 55.55134 | 5.38832 | 35125 ft | 500 kts | 40° |
| 2026-05-07 10:45 | 55.60397 | 5.46880 | 35116 ft | 500 kts | 40° |
| 2026-05-07 10:45 | 55.65658 | 5.54959 | 35118 ft | 501 kts | 40° |
| 2026-05-07 10:46 | 55.70921 | 5.63074 | 35116 ft | 501 kts | 40° |
| 2026-05-07 10:46 | 55.76145 | 5.71159 | 35118 ft | 502 kts | 40° |
| 2026-05-07 10:47 | 55.81410 | 5.79336 | 35118 ft | 503 kts | 40° |
| 2026-05-07 10:47 | 55.86672 | 5.87540 | 35119 ft | 503 kts | 40° |
| 2026-05-07 10:48 | 55.91941 | 5.95785 | 35117 ft | 504 kts | 40° |
| 2026-05-07 10:48 | 55.97211 | 6.04064 | 35119 ft | 505 kts | 40° |
| 2026-05-07 10:49 | 56.02485 | 6.12379 | 35120 ft | 506 kts | 40° |
| 2026-05-07 10:49 | 56.07757 | 6.20724 | 35119 ft | 507 kts | 40° |
| 2026-05-07 10:50 | 56.13033 | 6.29105 | 35118 ft | 507 kts | 40° |
| 2026-05-07 10:50 | 56.15669 | 6.33307 | 34989 ft | 505 kts | 40° |
| 2026-05-07 10:50 | 56.18249 | 6.37431 | 35035 ft | 487 kts | 40° |
| 2026-05-07 10:51 | 56.23178 | 6.45331 | 35096 ft | 471 kts | 39° |
| 2026-05-07 10:51 | 56.27287 | 6.51920 | 35130 ft | 481 kts | 39° |
| 2026-05-07 10:52 | 56.32320 | 6.60021 | 35113 ft | 487 kts | 39° |
| 2026-05-07 10:52 | 56.37361 | 6.68174 | 35114 ft | 486 kts | 40° |
| 2026-05-07 10:53 | 56.42388 | 6.76338 | 35113 ft | 485 kts | 39° |
| 2026-05-07 10:53 | 56.47390 | 6.84491 | 35111 ft | 483 kts | 40° |
| 2026-05-07 10:54 | 56.52374 | 6.92641 | 35110 ft | 482 kts | 40° |
| 2026-05-07 10:54 | 56.57313 | 7.00748 | 35110 ft | 482 kts | 40° |
| 2026-05-07 10:55 | 56.62275 | 7.08922 | 35113 ft | 482 kts | 40° |
| 2026-05-07 10:55 | 56.67234 | 7.17122 | 35111 ft | 482 kts | 40° |
| 2026-05-07 10:56 | 56.72200 | 7.25366 | 35116 ft | 483 kts | 40° |
| 2026-05-07 10:56 | 56.77171 | 7.33646 | 35113 ft | 485 kts | 40° |
| 2026-05-07 10:57 | 56.82147 | 7.41969 | 35116 ft | 485 kts | 40° |
| 2026-05-07 10:57 | 56.87124 | 7.50324 | 35107 ft | 486 kts | 40° |
| 2026-05-07 10:58 | 56.92100 | 7.58708 | 35110 ft | 487 kts | 40° |
| 2026-05-07 10:58 | 56.97078 | 7.67128 | 35104 ft | 487 kts | 40° |
| 2026-05-07 10:59 | 57.02055 | 7.75579 | 35102 ft | 487 kts | 40° |
| 2026-05-07 10:59 | 57.07020 | 7.84043 | 35104 ft | 487 kts | 40° |
| 2026-05-07 11:00 | 57.11988 | 7.92542 | 35109 ft | 487 kts | 40° |
| 2026-05-07 11:00 | 57.16917 | 8.01009 | 35103 ft | 488 kts | 40° |
| 2026-05-07 11:01 | 57.21873 | 8.09553 | 35106 ft | 488 kts | 40° |
| 2026-05-07 11:01 | 57.26828 | 8.18128 | 35108 ft | 488 kts | 40° |
| 2026-05-07 11:02 | 57.31777 | 8.26728 | 35111 ft | 488 kts | 40° |
| 2026-05-07 11:02 | 57.36729 | 8.35365 | 35109 ft | 489 kts | 40° |
| 2026-05-07 11:03 | 57.41675 | 8.44025 | 35108 ft | 489 kts | 40° |
| 2026-05-07 11:03 | 57.46616 | 8.52712 | 35109 ft | 490 kts | 40° |
| 2026-05-07 11:04 | 57.51559 | 8.61436 | 35110 ft | 490 kts | 40° |
| 2026-05-07 11:04 | 57.56500 | 8.70190 | 35109 ft | 491 kts | 40° |
| 2026-05-07 11:05 | 57.61443 | 8.78984 | 35110 ft | 491 kts | 40° |
| 2026-05-07 11:05 | 57.66383 | 8.87805 | 35111 ft | 492 kts | 40° |
| 2026-05-07 11:06 | 57.71322 | 8.96660 | 35112 ft | 492 kts | 40° |
| 2026-05-07 11:06 | 57.76258 | 9.05546 | 35109 ft | 492 kts | 40° |
| 2026-05-07 11:07 | 57.81173 | 9.14430 | 35114 ft | 493 kts | 40° |
| 2026-05-07 11:07 | 57.86117 | 9.23401 | 35114 ft | 493 kts | 40° |
| 2026-05-07 11:08 | 57.91039 | 9.32367 | 35115 ft | 494 kts | 40° |
| 2026-05-07 11:08 | 57.95935 | 9.41324 | 35115 ft | 494 kts | 40° |
| 2026-05-07 11:09 | 58.00865 | 9.50379 | 35116 ft | 494 kts | 40° |
| 2026-05-07 11:09 | 58.05786 | 9.59454 | 35115 ft | 495 kts | 40° |
| 2026-05-07 11:10 | 58.10704 | 9.68559 | 35121 ft | 495 kts | 40° |
| 2026-05-07 11:10 | 58.15551 | 9.77854 | 35117 ft | 498 kts | 45° |
| 2026-05-07 11:11 | 58.19643 | 9.88529 | 35123 ft | 503 kts | 54° |
| 2026-05-07 11:11 | 58.23383 | 9.99773 | 35122 ft | 504 kts | 54° |
| 2026-05-07 11:12 | 58.27138 | 10.11033 | 35116 ft | 505 kts | 54° |
| 2026-05-07 11:12 | 58.30922 | 10.22271 | 35116 ft | 505 kts | 53° |
| 2026-05-07 11:13 | 58.34712 | 10.33538 | 35120 ft | 505 kts | 54° |
| 2026-05-07 11:13 | 58.38490 | 10.44838 | 35119 ft | 506 kts | 54° |
| 2026-05-07 11:14 | 58.42259 | 10.56166 | 35126 ft | 506 kts | 54° |
| 2026-05-07 11:14 | 58.45845 | 10.67767 | 35122 ft | 508 kts | 57° |
| 2026-05-07 11:15 | 58.49250 | 10.79605 | 35109 ft | 509 kts | 58° |
| 2026-05-07 11:15 | 58.52673 | 10.91457 | 35118 ft | 509 kts | 57° |
| 2026-05-07 11:16 | 58.56123 | 11.03298 | 35102 ft | 509 kts | 57° |
| 2026-05-07 11:16 | 58.59572 | 11.15156 | 35105 ft | 509 kts | 57° |
| 2026-05-07 11:17 | 58.63006 | 11.27042 | 35110 ft | 510 kts | 57° |
| 2026-05-07 11:17 | 58.66436 | 11.38980 | 35103 ft | 511 kts | 58° |
| 2026-05-07 11:18 | 58.69839 | 11.50870 | 35094 ft | 511 kts | 57° |
| 2026-05-07 11:18 | 58.73294 | 11.62850 | 35091 ft | 512 kts | 57° |
| 2026-05-07 11:19 | 58.76745 | 11.74839 | 35083 ft | 512 kts | 57° |
| 2026-05-07 11:19 | 58.80183 | 11.86864 | 35078 ft | 512 kts | 58° |
| 2026-05-07 11:20 | 58.83273 | 11.99277 | 35081 ft | 515 kts | 63° |
| 2026-05-07 11:20 | 58.86070 | 12.12000 | 35083 ft | 515 kts | 64° |
| 2026-05-07 11:21 | 58.88852 | 12.24781 | 35079 ft | 516 kts | 64° |
| 2026-05-07 11:21 | 58.91656 | 12.37570 | 35080 ft | 516 kts | 64° |
| 2026-05-07 11:22 | 58.94462 | 12.50363 | 35081 ft | 517 kts | 64° |
| 2026-05-07 11:22 | 58.97260 | 12.63179 | 35082 ft | 517 kts | 64° |
| 2026-05-07 11:23 | 59.00049 | 12.76042 | 35076 ft | 518 kts | 64° |
| 2026-05-07 11:23 | 59.02827 | 12.88944 | 35076 ft | 518 kts | 64° |
| 2026-05-07 11:24 | 59.05574 | 13.01785 | 35081 ft | 518 kts | 64° |
| 2026-05-07 11:24 | 59.08328 | 13.14740 | 35084 ft | 519 kts | 64° |
| 2026-05-07 11:25 | 59.11076 | 13.27745 | 35078 ft | 519 kts | 64° |
| 2026-05-07 11:25 | 59.13810 | 13.40764 | 35080 ft | 520 kts | 64° |
| 2026-05-07 11:26 | 59.16531 | 13.53809 | 35073 ft | 520 kts | 65° |
| 2026-05-07 11:26 | 59.19239 | 13.66873 | 35072 ft | 520 kts | 65° |
| 2026-05-07 11:27 | 59.21938 | 13.79978 | 35071 ft | 520 kts | 65° |
| 2026-05-07 11:27 | 59.24626 | 13.93113 | 35076 ft | 521 kts | 65° |
| 2026-05-07 11:28 | 59.27301 | 14.06273 | 35071 ft | 521 kts | 65° |
| 2026-05-07 11:28 | 59.28639 | 14.12883 | 34835 ft | 525 kts | 65° |
| 2026-05-07 11:28 | 59.29998 | 14.19607 | 33987 ft | 535 kts | 65° |
| 2026-05-07 11:29 | 59.31343 | 14.26307 | 33147 ft | 522 kts | 65° |
| 2026-05-07 11:29 | 59.32663 | 14.32917 | 32339 ft | 521 kts | 65° |
| 2026-05-07 11:29 | 59.33985 | 14.39543 | 31513 ft | 522 kts | 64° |
| 2026-05-07 11:29 | 59.35291 | 14.46110 | 31035 ft | 515 kts | 64° |
| 2026-05-07 11:30 | 59.36566 | 14.52550 | 30502 ft | 510 kts | 64° |
| 2026-05-07 11:30 | 59.37843 | 14.59011 | 29967 ft | 506 kts | 64° |
| 2026-05-07 11:30 | 59.39121 | 14.65502 | 29372 ft | 501 kts | 64° |
| 2026-05-07 11:30 | 59.40349 | 14.71754 | 28844 ft | 495 kts | 65° |
| 2026-05-07 11:31 | 59.41577 | 14.78025 | 28346 ft | 489 kts | 65° |
| 2026-05-07 11:31 | 59.42789 | 14.84238 | 27843 ft | 484 kts | 65° |
| 2026-05-07 11:31 | 59.44002 | 14.90471 | 27337 ft | 480 kts | 65° |
| 2026-05-07 11:31 | 59.45168 | 14.96475 | 26839 ft | 475 kts | 65° |
| 2026-05-07 11:32 | 59.47498 | 15.08541 | 25847 ft | 468 kts | 66° |
| 2026-05-07 11:32 | 59.48645 | 15.14505 | 25378 ft | 464 kts | 66° |
| 2026-05-07 11:32 | 59.49783 | 15.20446 | 24889 ft | 461 kts | 66° |
| 2026-05-07 11:33 | 59.50909 | 15.26335 | 24428 ft | 459 kts | 66° |
| 2026-05-07 11:33 | 59.52027 | 15.32202 | 23956 ft | 456 kts | 66° |
| 2026-05-07 11:33 | 59.53136 | 15.38042 | 23444 ft | 454 kts | 67° |
| 2026-05-07 11:33 | 59.54236 | 15.43857 | 22919 ft | 452 kts | 67° |
| 2026-05-07 11:34 | 59.55327 | 15.49639 | 22416 ft | 448 kts | 67° |
| 2026-05-07 11:34 | 59.56407 | 15.55382 | 21946 ft | 444 kts | 67° |
| 2026-05-07 11:34 | 59.57475 | 15.61077 | 21483 ft | 441 kts | 67° |
| 2026-05-07 11:34 | 59.58529 | 15.66714 | 21014 ft | 437 kts | 67° |
| 2026-05-07 11:35 | 59.59577 | 15.72329 | 20558 ft | 434 kts | 68° |
| 2026-05-07 11:35 | 59.60612 | 15.77894 | 20109 ft | 431 kts | 68° |
| 2026-05-07 11:35 | 59.61639 | 15.83427 | 19659 ft | 428 kts | 68° |
| 2026-05-07 11:35 | 59.62656 | 15.88932 | 19213 ft | 425 kts | 68° |
| 2026-05-07 11:36 | 59.63667 | 15.94411 | 18752 ft | 422 kts | 68° |
| 2026-05-07 11:36 | 59.64666 | 15.99849 | 18317 ft | 420 kts | 68° |
| 2026-05-07 11:36 | 59.65656 | 16.05249 | 17811 ft | 417 kts | 68° |
| 2026-05-07 11:36 | 59.66639 | 16.10627 | 17341 ft | 414 kts | 68° |
| 2026-05-07 11:37 | 59.67611 | 16.15960 | 16895 ft | 410 kts | 68° |
| 2026-05-07 11:37 | 59.68571 | 16.21239 | 16448 ft | 406 kts | 68° |
| 2026-05-07 11:37 | 59.69201 | 16.24714 | 16163 ft | 404 kts | 68° |
| 2026-05-07 11:37 | 59.70463 | 16.31693 | 15581 ft | 400 kts | 68° |
| 2026-05-07 11:38 | 59.71082 | 16.35123 | 15289 ft | 398 kts | 68° |
| 2026-05-07 11:38 | 59.72009 | 16.40273 | 14868 ft | 395 kts | 69° |
| 2026-05-07 11:38 | 59.72927 | 16.45390 | 14420 ft | 392 kts | 69° |
| 2026-05-07 11:38 | 59.73834 | 16.50455 | 14014 ft | 389 kts | 69° |
| 2026-05-07 11:39 | 59.75024 | 16.57126 | 13404 ft | 385 kts | 69° |
| 2026-05-07 11:39 | 59.75626 | 16.60509 | 13102 ft | 383 kts | 69° |
| 2026-05-07 11:39 | 59.76791 | 16.67073 | 12531 ft | 378 kts | 69° |
| 2026-05-07 11:39 | 59.77379 | 16.70390 | 12247 ft | 376 kts | 69° |
| 2026-05-07 11:40 | 59.78227 | 16.75194 | 11843 ft | 372 kts | 70° |
| 2026-05-07 11:40 | 59.79076 | 16.80012 | 11422 ft | 369 kts | 70° |
| 2026-05-07 11:40 | 59.79917 | 16.84797 | 11026 ft | 365 kts | 70° |
| 2026-05-07 11:40 | 59.80742 | 16.89494 | 10868 ft | 354 kts | 70° |
| 2026-05-07 11:41 | 59.81537 | 16.94037 | 10692 ft | 339 kts | 70° |
| 2026-05-07 11:41 | 59.82283 | 16.98334 | 10543 ft | 319 kts | 71° |
| 2026-05-07 11:41 | 59.82793 | 17.02478 | 10402 ft | 299 kts | 81° |
| 2026-05-07 11:41 | 59.83064 | 17.06452 | 10304 ft | 283 kts | 83° |
| 2026-05-07 11:42 | 59.83311 | 17.10265 | 10183 ft | 274 kts | 83° |
| 2026-05-07 11:42 | 59.83550 | 17.13964 | 10062 ft | 266 kts | 83° |
| 2026-05-07 11:42 | 59.83792 | 17.17591 | 9868 ft | 265 kts | 82° |
| 2026-05-07 11:42 | 59.84046 | 17.21298 | 9610 ft | 276 kts | 82° |
| 2026-05-07 11:43 | 59.84313 | 17.25140 | 9326 ft | 283 kts | 82° |
| 2026-05-07 11:43 | 59.84585 | 17.29012 | 9028 ft | 283 kts | 82° |
| 2026-05-07 11:43 | 59.84612 | 17.29396 | 9001 ft | 283 kts | 82° |
| 2026-05-07 11:43 | 59.84830 | 17.32552 | 8756 ft | 281 kts | 82° |
| 2026-05-07 11:44 | 59.85092 | 17.36338 | 8459 ft | 271 kts | 82° |
| 2026-05-07 11:44 | 59.85346 | 17.40019 | 8222 ft | 267 kts | 82° |
| 2026-05-07 11:44 | 59.85595 | 17.43616 | 7976 ft | 256 kts | 82° |
| 2026-05-07 11:44 | 59.85829 | 17.47037 | 7695 ft | 244 kts | 82° |
| 2026-05-07 11:45 | 59.86059 | 17.50358 | 7458 ft | 241 kts | 82° |
| 2026-05-07 11:45 | 59.86281 | 17.53642 | 7219 ft | 239 kts | 82° |
| 2026-05-07 11:45 | 59.86502 | 17.56882 | 6964 ft | 234 kts | 82° |
| 2026-05-07 11:45 | 59.86719 | 17.60065 | 6727 ft | 231 kts | 82° |
| 2026-05-07 11:46 | 59.86930 | 17.63207 | 6508 ft | 227 kts | 82° |
| 2026-05-07 11:46 | 59.87135 | 17.66260 | 6315 ft | 217 kts | 82° |
| 2026-05-07 11:46 | 59.87325 | 17.69101 | 6122 ft | 200 kts | 83° |
| 2026-05-07 11:46 | 59.87502 | 17.71748 | 6001 ft | 191 kts | 82° |
| 2026-05-07 11:47 | 59.87679 | 17.74406 | 5887 ft | 196 kts | 82° |
| 2026-05-07 11:47 | 59.87858 | 17.77120 | 5654 ft | 197 kts | 83° |
| 2026-05-07 11:47 | 59.88034 | 17.79760 | 5409 ft | 188 kts | 83° |
| 2026-05-07 11:47 | 59.88203 | 17.82311 | 5195 ft | 185 kts | 83° |
| 2026-05-07 11:48 | 59.88370 | 17.84873 | 5008 ft | 188 kts | 83° |
| 2026-05-07 11:48 | 59.88540 | 17.87492 | 4785 ft | 192 kts | 83° |
| 2026-05-07 11:48 | 59.88710 | 17.90096 | 4614 ft | 186 kts | 83° |
| 2026-05-07 11:48 | 59.88840 | 17.92650 | 4483 ft | 183 kts | 95° |
| 2026-05-07 11:49 | 59.88329 | 17.94855 | 4392 ft | 180 kts | 142° |
| 2026-05-07 11:49 | 59.87200 | 17.95979 | 4197 ft | 185 kts | 163° |
| 2026-05-07 11:49 | 59.85980 | 17.96807 | 3918 ft | 183 kts | 163° |
| 2026-05-07 11:49 | 59.84806 | 17.97652 | 3686 ft | 176 kts | 163° |
| 2026-05-07 11:50 | 59.83658 | 17.98153 | 3423 ft | 162 kts | 188° |
| 2026-05-07 11:50 | 59.82573 | 17.97904 | 3244 ft | 157 kts | 184° |
| 2026-05-07 11:50 | 59.81473 | 17.97716 | 3064 ft | 162 kts | 192° |
| 2026-05-07 11:50 | 59.80340 | 17.97326 | 2823 ft | 162 kts | 195° |
| 2026-05-07 11:51 | 59.79279 | 17.96906 | 2624 ft | 149 kts | 190° |
| 2026-05-07 11:51 | 59.78256 | 17.96584 | 2512 ft | 156 kts | 191° |
| 2026-05-07 11:51 | 59.77199 | 17.96200 | 2319 ft | 154 kts | 192° |
| 2026-05-07 11:51 | 59.76131 | 17.95802 | 2080 ft | 154 kts | 192° |
| 2026-05-07 11:52 | 59.75097 | 17.95419 | 1943 ft | 152 kts | 191° |
| 2026-05-07 11:52 | 59.74047 | 17.95051 | 1808 ft | 153 kts | 191° |
| 2026-05-07 11:52 | 59.72984 | 17.94682 | 1547 ft | 156 kts | 192° |
| 2026-05-07 11:52 | 59.71932 | 17.94294 | 1353 ft | 151 kts | 190° |
| 2026-05-07 11:53 | 59.70916 | 17.93955 | 1120 ft | 148 kts | 192° |
| 2026-05-07 11:53 | 59.69898 | 17.93554 | 906 ft | 149 kts | 191° |
| 2026-05-07 11:53 | 59.68860 | 17.93161 | 698 ft | 153 kts | 191° |
| 2026-05-07 11:53 | 59.67814 | 17.92785 | 401 ft | 151 kts | 190° |
| 2026-05-07 11:54 | 59.66801 | 17.92432 | 213 ft | 145 kts | 191° |
| 2026-05-07 11:54 | 59.65832 | 17.92076 | 120 ft | 134 kts | 191° |
| 2026-05-07 11:54 | 59.65033 | 17.91795 | 109 ft | 92 kts | 190° |
| 2026-05-07 11:54 | 59.64585 | 17.91632 | 114 ft | 39 kts | 190° |
| 2026-05-07 11:55 | 59.64434 | 17.91653 | 111 ft | 17 kts | 126° |
| 2026-05-07 11:55 | 59.64405 | 17.91866 | 116 ft | 10 kts | 89° |
| 2026-05-07 11:55 | 59.64413 | 17.92006 | 117 ft | 10 kts | 96° |
| 2026-05-07 11:55 | 59.64386 | 17.92137 | 115 ft | 10 kts | 118° |
| 2026-05-07 11:56 | 59.64354 | 17.92256 | 116 ft | 3 kts | 117° |
| 2026-05-07 11:56 | 59.64353 | 17.92256 | 116 ft | 0 kts | 117° |
| 2026-05-07 11:56 | 59.64353 | 17.92257 | 116 ft | 0 kts | 117° |
| 2026-05-07 11:57 | 59.64351 | 17.92268 | 115 ft | 2 kts | 117° |
| 2026-05-07 11:57 | 59.64339 | 17.92312 | 116 ft | 5 kts | 117° |
| 2026-05-07 11:57 | 59.64315 | 17.92400 | 117 ft | 9 kts | 117° |
| 2026-05-07 11:57 | 59.64292 | 17.92487 | 114 ft | 5 kts | 118° |
| 2026-05-07 11:58 | 59.64302 | 17.92553 | 116 ft | 7 kts | 42° |
| 2026-05-07 11:58 | 59.64341 | 17.92621 | 113 ft | 8 kts | 45° |
| 2026-05-07 11:58 | 59.64360 | 17.92663 | 113 ft | 2 kts | 46° |
| 2026-05-07 11:58 | 59.64371 | 17.92685 | 113 ft | 2 kts | 46° |
| 2026-05-07 11:59 | 59.64384 | 17.92711 | 114 ft | 2 kts | 46° |
| 2026-05-07 11:59 | 59.64388 | 17.92719 | 114 ft | 0 kts | 46° |
| 2026-05-07 11:59 | 59.64389 | 17.92721 | 114 ft | 0 kts | 46° |